Startpagina
METAR-TAF:

METAR-TAF

Vliegvelden :

Oslo, Noorwegen

Luchthaven Oslo Gardermoen

breedte: 60-12N, lengte: 011-05E, hoogte: 208 m

Actueel weer

Dit bericht is 43 minuten geleden gemaakt, om 11:20 UTC
Wind 3 kt uit het noordnoordwesten, variërend tussen het westnoordwesten en het noordnoordoosten
Temperatuur -1°C
Vochtigheid 64%
Druk 1003 hPa
Zicht 10 km of meer
geen wolken onder 1500 m en geen cumulonimbus

METAR: ENGM 191120Z 33003KT 290V020 CAVOK M01/M07 Q1003 NOSIG

Tijdstip: 13:03 (12:03 UTC)

Verwachting

Verwachting geldig van 19 om 12 UTC tot 20 om 12 UTC
Wind 5 kt uit het noordnoordwesten
Zicht 10 km of meer
geen wolken onder 1500 m en geen cumulonimbus

TAF: ENGM 1912/2012 34005KT CAVOK

Waarnemingen en weersverwachtingen van meer dan 4000 vliegvelden (METAR en TAF).

De beschikbare stations zijn de gele en rode punten op de kaart.

Ga met uw muis naar het station om de naam te zien.

Klik dan om waarnemingen en weersverwachtingen te zien.

kaart wijzigen: klik op de groene knoppen met een zwart kruis om in te zoomen, op de groene knop met een streepje om uit te zoomen of op de groene pijlen voor aangrenzende kaarten.


METAR-TAF: